Time;durP1;ratioP1;P1;durP2;ratioP2;P2;SDS_P1;SDS_P2;PMS_P1;PMS_P2;Temp;Humidity;BMP_temperature;BMP_pressure;BME280_temperature;BME280_humidity;BME280_pressure;Samples;Min_cycle;Max_cycle;Signal;HPM_P1;HPM_P2
2022/03/21 00:04:24;;;;;;;93.07;48.48;;;;;;;-1.50;49.69;103202.08;3575117;78;20974;-70
2022/03/21 00:09:16;;;;;;;84.55;44.90;;;;;;;-1.61;49.99;103204.42;3564023;76;21388;-71
2022/03/21 00:14:11;;;;;;;94.30;48.52;;;;;;;-1.63;49.96;103203.33;3575800;77;20990;-71
2022/03/21 00:19:02;;;;;;;84.20;43.13;;;;;;;-1.70;50.11;103212.35;3611880;77;21045;-71
2022/03/21 00:23:53;;;;;;;94.92;48.45;;;;;;;-1.77;50.24;103208.61;3614528;77;21387;-71
2022/03/21 00:28:45;;;;;;;94.83;47.65;;;;;;;-1.84;50.47;103211.25;3548737;77;20990;-70
2022/03/21 00:33:36;;;;;;;92.88;48.13;;;;;;;-1.92;50.55;103210.44;3616851;77;21074;-71
2022/03/21 00:38:28;;;;;;;102.92;49.10;;;;;;;-1.96;50.72;103208.31;3519086;77;20986;-71
2022/03/21 00:43:23;;;;;;;93.33;49.33;;;;;;;-2.00;50.83;103209.63;3583736;77;20887;-71
2022/03/21 00:48:14;;;;;;;103.47;52.55;;;;;;;-2.09;50.89;103218.84;3557927;77;21001;-71
2022/03/21 00:53:06;;;;;;;98.40;50.60;;;;;;;-2.12;51.12;103213.40;3594334;77;21511;-70
2022/03/21 00:57:59;;;;;;;105.27;52.33;;;;;;;-2.12;51.27;103209.58;3618043;77;21483;-70
2022/03/21 01:02:50;;;;;;;100.70;50.78;;;;;;;-2.16;51.24;103206.17;3510868;77;21006;-71
2022/03/21 01:07:43;;;;;;;105.10;48.87;;;;;;;-2.26;51.47;103204.63;3587377;77;20942;-70
2022/03/21 01:12:34;;;;;;;111.40;52.20;;;;;;;-2.34;51.61;103202.16;3486935;79;21563;-71
2022/03/21 01:17:26;;;;;;;104.70;54.58;;;;;;;-2.40;51.96;103195.09;3510057;79;21021;-70
2022/03/21 01:22:17;;;;;;;105.43;51.55;;;;;;;-2.41;51.95;103192.03;3532686;78;21060;-70
2022/03/21 01:27:10;;;;;;;107.65;51.28;;;;;;;-2.43;52.03;103194.80;3489036;78;21574;-70
2022/03/21 01:32:02;;;;;;;104.45;51.60;;;;;;;-2.47;52.11;103195.17;3492105;78;21060;-70
2022/03/21 01:36:54;;;;;;;106.63;52.67;;;;;;;-2.53;52.34;103184.33;3557924;79;20982;-71
2022/03/21 01:41:47;;;;;;;112.47;51.63;;;;;;;-2.53;52.52;103181.78;3556616;78;20934;-70
2022/03/21 01:46:39;;;;;;;111.17;53.92;;;;;;;-2.57;52.56;103177.09;3547229;78;22057;-71
2022/03/21 01:51:32;;;;;;;112.25;55.88;;;;;;;-2.61;52.82;103182.56;3511142;78;20958;-70
2022/03/21 01:56:23;;;;;;;114.42;55.52;;;;;;;-2.70;53.14;103181.19;3505579;79;20954;-71
2022/03/21 02:01:14;;;;;;;102.53;54.30;;;;;;;-2.64;53.17;103177.16;3554675;78;21001;-71
2022/03/21 02:06:06;;;;;;;105.25;55.33;;;;;;;-2.67;53.27;103183.19;3576060;78;20936;-70
2022/03/21 02:10:58;;;;;;;105.00;51.90;;;;;;;-2.71;53.61;103181.56;3470012;80;22051;-70
2022/03/21 02:15:50;;;;;;;112.62;52.90;;;;;;;-2.76;53.31;103175.06;3489580;80;21024;-71
2022/03/21 02:20:43;;;;;;;118.45;55.48;;;;;;;-2.77;53.43;103178.36;3477822;78;21478;-71
2022/03/21 02:25:45;;;;;;;125.65;55.15;;;;;;;-2.82;53.56;103176.95;3531277;78;20998;-70
2022/03/21 02:30:38;;;;;;;129.50;58.28;;;;;;;-2.88;53.72;103179.72;3527971;78;20985;-70
2022/03/21 02:35:32;;;;;;;126.53;57.85;;;;;;;-2.93;53.82;103181.23;3536515;80;21492;-71
2022/03/21 02:40:25;;;;;;;128.18;59.63;;;;;;;-3.04;54.14;103177.49;3467185;80;20946;-70
2022/03/21 02:45:16;;;;;;;117.72;57.67;;;;;;;-3.08;54.36;103182.61;3508737;80;21468;-70
2022/03/21 02:50:25;;;;;;;127.10;60.70;;;;;;;-3.07;54.37;103188.59;3516425;78;21484;-70
2022/03/21 02:55:16;;;;;;;124.72;57.90;;;;;;;-3.09;54.45;103193.51;3514648;80;21228;-70
2022/03/21 03:00:12;;;;;;;120.70;58.78;;;;;;;-3.13;54.64;103181.53;3491752;80;22183;-70
2022/03/21 03:05:03;;;;;;;122.87;61.90;;;;;;;-3.18;54.96;103182.31;3481705;79;21519;-70
2022/03/21 03:09:54;;;;;;;119.50;57.67;;;;;;;-3.14;54.93;103182.28;3578916;78;20970;-71
2022/03/21 03:14:45;;;;;;;126.33;60.98;;;;;;;-3.19;54.95;103179.21;3591634;78;21455;-70
2022/03/21 03:19:37;;;;;;;124.18;56.58;;;;;;;-3.19;55.19;103176.66;3538141;78;20938;-70
2022/03/21 03:24:28;;;;;;;114.70;56.35;;;;;;;-3.22;55.07;103176.69;3534866;78;21144;-70
2022/03/21 03:29:20;;;;;;;123.35;58.98;;;;;;;-3.29;55.18;103175.09;3534505;78;20950;-70
2022/03/21 03:34:12;;;;;;;124.87;60.65;;;;;;;-3.31;55.22;103174.02;3466794;78;21463;-70
2022/03/21 03:39:05;;;;;;;123.07;55.70;;;;;;;-3.34;55.28;103178.78;3528664;79;21016;-70
2022/03/21 03:43:58;;;;;;;120.87;58.42;;;;;;;-3.39;55.42;103176.09;3580535;79;21648;-70
2022/03/21 03:48:49;;;;;;;120.92;58.98;;;;;;;-3.42;55.53;103171.55;3536715;78;21050;-70
2022/03/21 03:53:41;;;;;;;119.10;57.00;;;;;;;-3.51;55.67;103167.59;3520134;79;20980;-70
2022/03/21 03:58:36;;;;;;;115.20;58.00;;;;;;;-3.55;55.78;103162.91;3492683;78;20954;-70
2022/03/21 04:03:45;;;;;;;129.12;58.98;;;;;;;-3.54;55.90;103153.62;3565368;78;20911;-69
2022/03/21 04:08:36;;;;;;;121.47;57.20;;;;;;;-3.56;56.23;103156.02;3563830;77;20928;-70
2022/03/21 04:13:28;;;;;;;112.88;55.17;;;;;;;-3.60;56.10;103156.39;3548893;77;21232;-70
2022/03/21 04:18:20;;;;;;;121.05;60.45;;;;;;;-3.63;56.19;103157.34;3519361;77;20936;-70
2022/03/21 04:23:11;;;;;;;128.68;61.90;;;;;;;-3.66;56.50;103166.78;3542282;77;20881;-70
2022/03/21 04:28:11;;;;;;;118.93;57.20;;;;;;;-3.66;56.65;103165.87;3595491;78;20987;-70
2022/03/21 04:33:05;;;;;;;123.30;59.27;;;;;;;-3.67;56.34;103176.77;3616549;77;20904;-71
2022/03/21 04:37:57;;;;;;;121.40;58.70;;;;;;;-3.70;56.45;103178.95;3535913;77;21013;-70
2022/03/21 04:42:49;;;;;;;119.33;57.05;;;;;;;-3.76;56.44;103181.71;3570985;78;20963;-70
2022/03/21 04:47:40;;;;;;;121.65;59.00;;;;;;;-3.80;56.46;103183.38;3492316;80;20923;-70
2022/03/21 04:52:31;;;;;;;119.87;59.42;;;;;;;-3.81;56.67;103184.09;3561623;77;21021;-70
2022/03/21 04:57:23;;;;;;;125.47;60.03;;;;;;;-3.77;56.97;103185.00;3526868;77;20924;-70
2022/03/21 05:02:14;;;;;;;131.43;62.83;;;;;;;-3.73;56.70;103184.61;3584808;77;21017;-70
2022/03/21 05:07:06;;;;;;;127.40;63.10;;;;;;;-3.71;56.79;103183.14;3555548;77;21774;-70
2022/03/21 05:11:57;;;;;;;140.05;62.38;;;;;;;-3.62;57.10;103188.38;3543252;78;20915;-70
2022/03/21 05:16:49;;;;;;;137.62;61.00;;;;;;;-3.57;56.99;103183.82;3489311;80;20934;-69
2022/03/21 05:21:40;;;;;;;123.20;58.52;;;;;;;-3.50;57.06;103183.78;3542282;78;20985;-70
2022/03/21 05:31:42;;;;;;;133.20;67.10;;;;;;;-3.34;57.14;103186.05;3518279;78;21009;-70
2022/03/21 05:36:33;;;;;;;133.30;64.70;;;;;;;-3.24;57.04;103191.78;3517953;79;21029;-70
2022/03/21 05:41:26;;;;;;;126.97;62.05;;;;;;;-3.15;57.16;103197.94;3509570;80;20962;-70
2022/03/21 05:46:19;;;;;;;130.35;64.55;;;;;;;-3.05;57.27;103198.95;3457972;78;21459;-71
2022/03/21 05:51:10;;;;;;;125.15;63.38;;;;;;;-2.93;57.33;103192.69;3544241;78;21483;-71
2022/03/21 05:56:02;;;;;;;124.30;65.10;;;;;;;-2.85;57.29;103198.23;3567866;78;21084;-71
2022/03/21 06:00:55;;;;;;;135.03;65.25;;;;;;;-2.76;57.30;103195.81;3497193;78;20954;-71
2022/03/21 06:05:46;;;;;;;125.00;63.38;;;;;;;-2.63;57.25;103201.88;3538418;80;20943;-71
2022/03/21 06:10:37;;;;;;;136.60;67.90;;;;;;;-2.47;57.43;103198.99;3549683;77;20966;-71
2022/03/21 06:15:29;;;;;;;141.40;68.97;;;;;;;-2.36;57.31;103197.61;3532738;78;22222;-71
2022/03/21 06:20:20;;;;;;;136.03;69.45;;;;;;;-2.30;57.20;103194.47;3489017;78;21533;-71
2022/03/21 06:25:11;;;;;;;139.23;69.37;;;;;;;-1.99;57.32;103193.95;3545254;78;20969;-71
2022/03/21 06:30:05;;;;;;;129.27;67.47;;;;;;;-1.82;57.31;103200.49;3520717;78;21179;-71
2022/03/21 06:34:57;;;;;;;121.82;64.77;;;;;;;-1.59;57.59;103197.84;3481451;78;20978;-71
2022/03/21 06:39:48;;;;;;;137.20;71.50;;;;;;;-1.17;57.08;103192.85;3528918;79;21914;-71
2022/03/21 06:44:40;;;;;;;126.02;68.30;;;;;;;-0.84;56.69;103199.66;3578743;79;20973;-71
2022/03/21 06:49:32;;;;;;;128.55;64.67;;;;;;;-0.16;56.15;103200.11;3479486;79;21040;-71
2022/03/21 06:54:23;;;;;;;116.73;61.42;;;;;;;-0.02;56.02;103211.34;3505200;79;20974;-71
2022/03/21 06:59:14;;;;;;;115.10;61.85;;;;;;;0.24;55.72;103205.34;3481399;79;21598;-71
2022/03/21 07:04:06;;;;;;;123.97;63.45;;;;;;;0.93;54.99;103195.75;3487284;78;22488;-71
2022/03/21 07:08:57;;;;;;;103.80;55.43;;;;;;;1.60;54.49;103198.66;3575919;78;21502;-71
2022/03/21 07:13:48;;;;;;;115.90;57.70;;;;;;;1.82;54.12;103199.37;3525333;78;20966;-71
2022/03/21 07:18:40;;;;;;;90.45;49.33;;;;;;;1.65;54.18;103200.00;3538487;78;21193;-71
2022/03/21 07:23:31;;;;;;;110.92;54.50;;;;;;;1.60;54.07;103201.23;3469868;78;21642;-70
2022/03/21 07:28:22;;;;;;;65.37;36.70;;;;;;;1.70;54.15;103205.57;3524721;78;21676;-70
2022/03/21 07:33:13;;;;;;;52.58;31.85;;;;;;;2.02;53.73;103207.61;3487595;78;21627;-71
2022/03/21 07:38:04;;;;;;;51.02;32.40;;;;;;;6.79;49.17;103185.05;3499455;78;21571;-72
2022/03/21 07:42:58;;;;;;;61.85;36.63;;;;;;;10.72;45.26;103175.05;3526187;78;20962;-72
2022/03/21 07:47:49;;;;;;;38.25;32.88;;;;;;;13.97;41.62;103168.33;3474094;78;20990;-72
2022/03/21 07:52:42;;;;;;;36.77;32.08;;;;;;;17.55;37.91;103159.72;3514608;78;20989;-72
2022/03/21 07:57:33;;;;;;;35.65;29.25;;;;;;;19.51;35.10;103157.17;3515917;78;20947;-74
2022/03/21 08:02:27;;;;;;;34.65;28.00;;;;;;;21.49;33.20;103151.30;3476497;78;21436;-73
2022/03/21 08:07:18;;;;;;;28.67;23.80;;;;;;;22.53;30.56;103154.34;3567461;78;21453;-72
2022/03/21 08:12:10;;;;;;;21.35;19.20;;;;;;;22.82;29.22;103154.06;3469525;80;22143;-71
2022/03/21 08:17:03;;;;;;;18.48;16.57;;;;;;;21.07;28.07;103152.59;3455899;78;23327;-72
2022/03/21 08:21:55;;;;;;;18.98;17.07;;;;;;;20.43;27.41;103148.18;3505022;80;21005;-72
2022/03/21 08:26:46;;;;;;;22.67;20.30;;;;;;;21.90;26.89;103144.17;3483824;78;21661;-72
2022/03/21 08:31:38;;;;;;;20.57;18.48;;;;;;;22.27;25.50;103144.04;3482006;80;21067;-70
2022/03/21 08:36:31;;;;;;;18.42;16.25;;;;;;;23.76;23.67;103136.16;3575160;78;21006;-69
2022/03/21 08:41:23;;;;;;;18.92;16.32;;;;;;;23.82;23.41;103132.20;3433449;80;21625;-69
2022/03/21 08:46:14;;;;;;;18.77;16.95;;;;;;;22.82;24.01;103130.20;3514250;78;21066;-69
2022/03/21 08:51:05;;;;;;;19.23;16.35;;;;;;;20.79;23.16;103133.72;3549857;80;21459;-67
2022/03/21 08:55:56;;;;;;;18.52;16.48;;;;;;;19.72;23.85;103121.93;3453619;80;21606;-67
2022/03/21 09:00:47;;;;;;;18.93;16.20;;;;;;;20.32;22.98;103124.25;3481349;78;21621;-67
2022/03/21 09:05:38;;;;;;;17.90;15.45;;;;;;;20.27;22.99;103115.80;3473146;78;20994;-70
2022/03/21 09:10:29;;;;;;;20.27;15.83;;;;;;;21.61;21.94;103113.04;3515922;78;20867;-67
2022/03/21 09:15:22;;;;;;;17.52;14.43;;;;;;;21.40;22.13;103112.80;3568488;78;20978;-67
2022/03/21 09:20:14;;;;;;;14.93;13.22;;;;;;;20.84;22.12;103123.22;3515572;79;20970;-67
2022/03/21 09:25:07;;;;;;;15.95;12.82;;;;;;;21.28;21.26;103121.49;3490285;78;20946;-67
2022/03/21 09:29:58;;;;;;;12.95;11.75;;;;;;;21.20;20.31;103125.39;3450191;78;22124;-66
2022/03/21 09:34:50;;;;;;;13.50;11.63;;;;;;;21.11;21.00;103120.00;3516287;78;21006;-66
2022/03/21 09:39:41;;;;;;;12.20;11.08;;;;;;;20.97;21.16;103116.31;3512632;80;20973;-68
2022/03/21 09:44:34;;;;;;;15.20;13.70;;;;;;;23.05;19.64;103105.53;3511136;80;21518;-67
2022/03/21 09:49:30;;;;;;;13.00;11.80;;;;;;;24.08;19.48;103100.75;3495813;80;20922;-67
2022/03/21 09:54:21;;;;;;;12.88;11.48;;;;;;;23.62;19.42;103096.77;3471605;78;21432;-67
2022/03/21 09:59:12;;;;;;;14.43;11.03;;;;;;;23.67;18.92;103093.67;3430344;80;21472;-67
2022/03/21 10:04:04;;;;;;;11.25;10.15;;;;;;;24.61;18.38;103089.53;3572950;78;20997;-68
2022/03/21 10:09:18;;;;;;;15.05;13.45;;;;;;;27.25;17.19;103077.23;3491907;78;49210;-69
2022/03/21 10:14:34;;;;;;;12.68;11.73;;;;;;;29.05;16.45;103068.42;3497044;78;21440;-70
2022/03/21 10:19:25;;;;;;;;;;;;;;;29.74;15.84;103071.16;3452625;78;21078;-70
2022/03/21 10:24:18;;;;;;;12.05;10.82;;;;;;;30.26;15.31;103060.34;3544842;78;20134;-69
2022/03/21 10:29:11;;;;;;;11.35;10.45;;;;;;;30.43;15.25;103052.31;3553944;78;21026;-70
2022/03/21 10:34:06;;;;;;;12.55;11.35;;;;;;;30.70;14.89;103048.75;3468010;78;21069;-70
2022/03/21 10:39:12;;;;;;;11.28;10.23;;;;;;;30.47;14.50;103048.59;3479396;78;20959;-69
2022/03/21 10:44:06;;;;;;;17.20;11.93;;;;;;;29.93;14.67;103040.28;3544644;78;21701;-69
2022/03/21 10:49:07;;;;;;;13.15;11.80;;;;;;;30.19;14.70;103035.95;3485479;78;21413;-70
2022/03/21 10:53:58;;;;;;;12.47;11.40;;;;;;;30.14;14.42;103036.58;3504457;78;21018;-69
2022/03/21 10:58:49;;;;;;;12.35;11.25;;;;;;;30.20;14.67;103028.34;3544392;78;21441;-68
2022/03/21 11:03:43;;;;;;;13.18;11.97;;;;;;;30.23;14.28;103017.52;3521335;78;20970;-70
2022/03/21 11:08:35;;;;;;;13.15;11.85;;;;;;;29.91;14.65;103021.14;3505725;78;21394;-69
2022/03/21 11:13:27;;;;;;;12.75;11.70;;;;;;;30.23;14.70;103017.05;3520602;77;21464;-69
2022/03/21 11:18:21;;;;;;;11.50;10.50;;;;;;;29.87;14.24;103008.72;3613981;78;20912;-68
2022/03/21 11:23:15;;;;;;;25.20;15.30;;;;;;;29.76;14.62;103002.33;3579623;77;21404;-68
2022/03/21 11:28:38;;;;;;;13.80;12.33;;;;;;;29.39;14.65;103003.31;3537575;77;20978;-68
2022/03/21 11:34:08;;;;;;;13.32;10.93;;;;;;;28.79;14.46;102994.94;3298861;85;21989;-69
2022/03/21 11:39:03;;;;;;;12.88;11.63;;;;;;;28.10;15.20;102991.98;3283681;85;21019;-69
2022/03/21 11:44:15;;;;;;;13.00;11.27;;;;;;;27.99;14.92;102982.42;3280118;87;21372;-67
2022/03/21 11:49:25;;;;;;;11.33;10.32;;;;;;;27.64;14.92;102982.18;3255795;85;21332;-68
2022/03/21 11:54:30;;;;;;;13.40;11.63;;;;;;;27.20;15.04;102976.72;3277485;86;21102;-68
2022/03/21 11:59:39;;;;;;;11.73;10.60;;;;;;;26.24;15.32;102973.23;3261774;85;22161;-68
2022/03/21 12:04:31;;;;;;;11.78;10.58;;;;;;;24.49;16.30;102958.83;3361270;82;20952;-68
2022/03/21 12:09:22;;;;;;;11.08;9.98;;;;;;;22.97;17.22;102960.03;3502664;77;20868;-68
2022/03/21 12:14:36;;;;;;;11.05;10.05;;;;;;;22.15;18.02;102949.64;3618934;77;20947;-69
2022/03/21 12:19:23;;;;;;;13.80;11.22;;;;;;;21.39;18.07;102944.31;3550073;77;21228;-66
2022/03/21 12:24:17;;;;;;;11.18;9.98;;;;;;;20.48;18.77;102932.46;3558098;77;20943;-67
2022/03/21 12:29:32;;;;;;;11.12;9.88;;;;;;;20.13;19.38;102925.00;3512943;77;21033;-67
2022/03/21 12:34:38;;;;;;;16.32;10.32;;;;;;;19.87;19.30;102929.06;3573157;77;20950;-67
2022/03/21 12:39:29;;;;;;;11.25;9.48;;;;;;;19.70;19.73;102924.41;3556648;77;20931;-67
2022/03/21 12:44:20;;;;;;;13.10;9.75;;;;;;;19.56;19.74;102910.12;3534881;78;20927;-66
2022/03/21 12:49:11;;;;;;;11.48;9.98;;;;;;;19.18;21.13;102902.53;3572150;77;20908;-68
2022/03/21 12:54:05;;;;;;;11.43;9.83;;;;;;;19.38;20.26;102901.52;3490087;77;20936;-68
2022/03/21 12:59:01;;;;;;;10.70;8.85;;;;;;;19.08;20.17;102895.33;3538504;77;20928;-68
2022/03/21 13:10:32;;;;;;;11.33;10.13;;;;;;;18.42;20.57;102879.20;3561165;77;20951;-68
2022/03/21 13:14:13;;;;;;;9.83;8.93;;;;;;;18.37;20.78;102883.50;3568128;77;21483;-67
2022/03/21 13:19:00;;;;;;;11.90;9.13;;;;;;;18.27;20.82;102883.77;3547878;77;21434;-66
2022/03/21 13:23:53;;;;;;;11.30;9.80;;;;;;;18.32;21.08;102874.64;3589311;77;20912;-67
2022/03/21 13:28:44;;;;;;;11.08;8.85;;;;;;;18.08;20.83;102870.65;3560740;77;20967;-67
2022/03/21 13:33:38;;;;;;;11.10;9.83;;;;;;;17.88;21.01;102869.84;3531004;78;21134;-67
2022/03/21 13:38:36;;;;;;;12.95;10.30;;;;;;;17.89;20.97;102866.34;3526331;77;21455;-67
2022/03/21 13:43:29;;;;;;;13.03;9.93;;;;;;;18.06;21.70;102857.89;3539451;77;20939;-67
2022/03/21 13:48:40;;;;;;;10.60;9.55;;;;;;;18.13;21.42;102861.54;3539900;77;20873;-67
2022/03/21 13:53:32;;;;;;;13.13;10.00;;;;;;;18.05;21.65;102852.19;3590925;77;20931;-68
2022/03/21 13:58:30;;;;;;;13.10;10.00;;;;;;;18.08;22.43;102846.95;3583727;78;20911;-67
2022/03/21 14:03:41;;;;;;;12.60;9.78;;;;;;;18.02;21.75;102843.78;3578966;77;21224;-67
2022/03/21 14:08:34;;;;;;;12.85;11.22;;;;;;;17.67;21.74;102845.64;3541574;77;20954;-66
2022/03/21 14:13:28;;;;;;;12.70;10.63;;;;;;;17.45;21.94;102841.23;3547470;77;21432;-66
2022/03/21 14:18:26;;;;;;;12.88;10.90;;;;;;;17.44;22.17;102844.73;3572549;77;20879;-68
2022/03/21 14:23:18;;;;;;;13.85;11.05;;;;;;;17.45;22.09;102834.66;3510016;78;20919;-67
2022/03/21 14:28:09;;;;;;;15.18;10.40;;;;;;;17.42;22.40;102833.70;3618653;77;21897;-66
2022/03/21 14:33:00;;;;;;;14.33;12.00;;;;;;;17.25;22.40;102829.39;3630028;77;20860;-68
2022/03/21 14:37:52;;;;;;;13.18;10.98;;;;;;;16.99;22.53;102829.69;3571751;78;20981;-67
2022/03/21 14:42:44;;;;;;;19.48;11.68;;;;;;;16.91;22.76;102824.66;3583229;77;20900;-67
2022/03/21 14:47:35;;;;;;;11.45;10.30;;;;;;;16.83;22.70;102814.34;3563745;77;20919;-67
2022/03/21 14:52:26;;;;;;;12.00;10.78;;;;;;;16.75;22.84;102812.41;3636098;75;21158;-67
2022/03/21 14:57:18;;;;;;;13.37;11.10;;;;;;;16.58;22.82;102810.69;3614440;78;20951;-68
2022/03/21 15:02:09;;;;;;;13.03;11.35;;;;;;;16.42;22.86;102802.36;3585975;77;20974;-67
2022/03/21 15:07:01;;;;;;;14.75;12.75;;;;;;;16.19;23.12;102798.73;3597911;77;20966;-68
2022/03/21 15:11:52;;;;;;;14.25;10.63;;;;;;;16.16;23.28;102796.02;3582833;77;20935;-67
2022/03/21 15:16:44;;;;;;;14.45;10.55;;;;;;;16.03;23.35;102786.92;3548432;78;20931;-67
2022/03/21 15:21:36;;;;;;;21.68;13.18;;;;;;;15.87;23.26;102780.80;3547047;78;20938;-67
2022/03/21 15:26:28;;;;;;;13.00;11.65;;;;;;;15.70;23.51;102779.83;3588661;77;20939;-67
2022/03/21 15:31:19;;;;;;;12.63;9.93;;;;;;;15.53;23.57;102779.36;3517856;77;20947;-67
2022/03/21 15:41:41;;;;;;;17.50;9.95;;;;;;;15.17;23.75;102780.47;3556087;77;21465;-67
2022/03/21 15:46:13;;;;;;;17.37;10.25;;;;;;;14.88;24.57;102775.20;3584204;77;21004;-67
2022/03/21 15:51:04;;;;;;;23.02;11.33;;;;;;;14.55;25.30;102784.11;3589570;77;21198;-66
2022/03/21 15:55:56;;;;;;;27.45;12.10;;;;;;;14.17;25.68;102784.57;3526214;77;20923;-67
2022/03/21 16:00:47;;;;;;;49.75;13.00;;;;;;;13.86;25.72;102789.11;3554319;77;20926;-67
2022/03/21 16:05:38;;;;;;;15.35;10.82;;;;;;;13.47;26.13;102788.12;3605259;78;21489;-67
2022/03/21 16:10:30;;;;;;;14.55;10.15;;;;;;;13.11;26.58;102794.94;3591829;77;20950;-67
2022/03/21 16:15:21;;;;;;;24.07;11.88;;;;;;;12.74;27.29;102794.78;3577951;78;20923;-67
2022/03/21 16:20:16;;;;;;;15.15;9.23;;;;;;;12.41;28.01;102796.44;3527153;78;21453;-66
2022/03/21 16:25:08;;;;;;;18.23;10.35;;;;;;;12.08;28.74;102792.86;3563094;78;21448;-67
2022/03/21 16:29:59;;;;;;;21.42;9.53;;;;;;;11.75;28.98;102799.63;3575767;78;21204;-66
2022/03/21 16:34:52;;;;;;;22.90;9.25;;;;;;;11.43;29.66;102802.06;3576496;78;21196;-67
2022/03/21 16:39:43;;;;;;;16.82;8.48;;;;;;;11.15;30.44;102810.27;3557953;78;21218;-66
2022/03/21 16:44:35;;;;;;;17.37;8.83;;;;;;;10.81;30.99;102808.63;3605418;77;20919;-66
2022/03/21 16:49:26;;;;;;;32.17;9.58;;;;;;;10.44;31.59;102806.77;3610700;78;20845;-67
2022/03/21 16:54:18;;;;;;;39.67;10.72;;;;;;;10.05;32.10;102802.18;3578379;78;21480;-66
2022/03/21 16:59:10;;;;;;;30.00;11.18;;;;;;;9.71;32.54;102807.27;3530542;78;20942;-67
2022/03/21 17:04:03;;;;;;;32.55;10.65;;;;;;;9.41;32.92;102804.80;3636213;78;20936;-66
2022/03/21 17:08:54;;;;;;;40.92;10.63;;;;;;;9.10;33.55;102810.89;3549724;78;21493;-66
2022/03/21 17:13:45;;;;;;;66.62;15.78;;;;;;;8.81;33.90;102813.52;3600149;77;20934;-66
2022/03/21 17:23:28;;;;;;;171.82;29.90;;;;;;;8.27;34.40;102809.92;3621664;77;20927;-67
2022/03/21 17:28:19;;;;;;;101.97;20.65;;;;;;;8.05;34.54;102812.00;3561751;77;22196;-66
2022/03/21 17:33:12;;;;;;;71.80;18.20;;;;;;;7.79;35.04;102825.56;3561754;77;21026;-66
2022/03/21 17:38:03;;;;;;;73.62;16.30;;;;;;;7.52;35.18;102833.39;3599774;77;20939;-67
2022/03/21 17:42:54;;;;;;;56.30;14.33;;;;;;;7.31;35.68;102826.84;3570125;77;20950;-66
2022/03/21 17:47:45;;;;;;;39.42;12.10;;;;;;;7.09;35.90;102824.17;3494275;80;22204;-66
2022/03/21 17:52:37;;;;;;;61.08;13.85;;;;;;;6.91;36.33;102828.16;3566330;77;22205;-66
2022/03/21 17:57:29;;;;;;;89.30;19.42;;;;;;;6.69;36.73;102822.86;3632932;77;21422;-66
2022/03/21 18:02:20;;;;;;;74.12;20.48;;;;;;;6.55;36.91;102831.38;3567988;77;20927;-66
2022/03/21 18:07:14;;;;;;;50.35;16.32;;;;;;;6.32;37.35;102825.55;3542587;77;21891;-66
2022/03/21 18:12:06;;;;;;;49.95;16.75;;;;;;;6.14;37.69;102832.05;3511897;77;20998;-67
2022/03/21 18:16:57;;;;;;;53.02;16.85;;;;;;;6.01;38.09;102840.61;3514426;78;22166;-66
2022/03/21 18:21:51;;;;;;;50.58;15.18;;;;;;;5.86;38.39;102839.12;3544881;78;20986;-66
2022/03/21 18:26:43;;;;;;;40.78;15.98;;;;;;;5.51;39.11;102846.16;3505710;78;22104;-66
2022/03/21 18:31:34;;;;;;;54.48;17.50;;;;;;;5.51;39.11;102846.16;3556084;78;21115;-66
2022/03/21 18:36:26;;;;;;;51.30;20.20;;;;;;;5.33;39.59;102844.45;3559616;77;20950;-66
2022/03/21 18:41:17;;;;;;;65.28;22.07;;;;;;;5.17;40.05;102849.28;3520289;77;20978;-66
2022/03/21 18:46:08;;;;;;;42.98;20.85;;;;;;;5.07;40.24;102850.68;3542856;78;21563;-66
2022/03/21 18:51:00;;;;;;;39.38;21.95;;;;;;;4.91;40.53;102853.40;3555967;78;20961;-66
2022/03/21 18:55:52;;;;;;;46.77;23.50;;;;;;;4.79;40.84;102855.06;3491320;78;21106;-66
2022/03/21 19:00:43;;;;;;;33.90;19.73;;;;;;;4.65;41.27;102851.84;3532596;78;20966;-66
2022/03/21 19:05:34;;;;;;;40.03;21.00;;;;;;;4.57;41.45;102848.30;3547334;78;20978;-67
2022/03/21 19:10:29;;;;;;;56.42;23.98;;;;;;;4.42;41.42;102854.89;3518785;78;21635;-67
2022/03/21 19:15:20;;;;;;;42.85;23.15;;;;;;;4.27;41.77;102859.73;3564775;77;20916;-67
2022/03/21 19:20:12;;;;;;;51.80;22.77;;;;;;;4.16;41.98;102865.34;3548642;77;21093;-67
2022/03/21 19:25:04;;;;;;;51.00;18.75;;;;;;;4.03;42.44;102872.91;3580727;77;20954;-67
2022/03/21 19:29:55;;;;;;;47.35;20.35;;;;;;;3.82;42.66;102867.86;3595183;77;20944;-67
2022/03/21 19:34:47;;;;;;;35.55;19.75;;;;;;;3.77;43.11;102877.29;3563620;77;20951;-67
2022/03/21 19:39:38;;;;;;;42.17;20.97;;;;;;;3.63;43.36;102877.11;3595226;77;21230;-68
2022/03/21 19:44:30;;;;;;;58.35;23.12;;;;;;;3.53;43.63;102877.53;3589215;77;21148;-67
2022/03/21 19:49:21;;;;;;;30.15;19.62;;;;;;;3.46;43.78;102881.68;3592006;77;20978;-67
2022/03/21 19:54:14;;;;;;;31.12;17.80;;;;;;;3.40;43.99;102884.27;3567763;77;20983;-67
2022/03/21 19:59:05;;;;;;;28.15;18.12;;;;;;;3.30;44.13;102880.42;3553187;77;21073;-67
2022/03/21 20:03:57;;;;;;;36.73;21.37;;;;;;;3.22;44.18;102877.64;3592348;77;21421;-67
2022/03/21 20:08:48;;;;;;;33.85;23.95;;;;;;;3.07;44.41;102882.80;3564199;77;21131;-67
2022/03/21 20:13:39;;;;;;;39.60;25.88;;;;;;;2.97;44.63;102878.20;3592951;77;20914;-67
2022/03/21 20:18:30;;;;;;;39.92;24.98;;;;;;;2.91;44.86;102878.95;3648651;77;21304;-67
2022/03/21 20:23:26;;;;;;;37.88;22.75;;;;;;;2.81;45.08;102877.31;3579999;77;21430;-67
2022/03/21 20:28:18;;;;;;;39.98;21.93;;;;;;;2.74;45.27;102876.69;3564129;77;20947;-70
2022/03/21 20:33:09;;;;;;;45.88;23.15;;;;;;;2.67;45.52;102882.97;3486995;77;22532;-67
2022/03/21 20:38:01;;;;;;;40.52;24.05;;;;;;;2.59;45.82;102881.02;3512412;77;21242;-67
2022/03/21 20:42:58;;;;;;;43.95;24.45;;;;;;;2.49;45.91;102887.46;3562976;77;20937;-67
2022/03/21 20:47:47;;;;;;;37.45;22.13;;;;;;;2.39;46.09;102882.31;3571595;77;20879;-67
2022/03/21 20:52:39;;;;;;;36.28;23.27;;;;;;;2.26;46.32;102881.27;3554201;77;20923;-67
2022/03/21 20:57:30;;;;;;;34.00;23.65;;;;;;;2.17;46.47;102880.48;3542506;77;21437;-67
2022/03/21 21:02:22;;;;;;;37.70;21.97;;;;;;;2.07;46.53;102888.16;3578089;77;20953;-67
2022/03/21 21:07:14;;;;;;;37.73;24.60;;;;;;;2.00;46.79;102884.54;3626580;77;21086;-67
2022/03/21 21:12:06;;;;;;;46.55;27.82;;;;;;;1.97;46.97;102893.25;3503222;77;21488;-67
2022/03/21 21:16:57;;;;;;;53.73;30.65;;;;;;;1.87;47.08;102887.32;3608162;77;20912;-67
2022/03/21 21:21:48;;;;;;;58.28;32.13;;;;;;;1.79;47.36;102884.49;3590233;77;21511;-67
2022/03/21 21:26:40;;;;;;;50.63;32.45;;;;;;;1.71;47.42;102886.75;3551501;77;20892;-67
2022/03/21 21:31:33;;;;;;;64.53;32.13;;;;;;;1.63;47.50;102887.77;3551427;77;20932;-67
2022/03/21 21:36:24;;;;;;;79.07;39.35;;;;;;;1.57;47.71;102882.97;3594341;77;20927;-67
2022/03/21 21:41:15;;;;;;;74.87;37.25;;;;;;;1.49;47.90;102874.62;3588170;77;20987;-67
2022/03/21 21:46:06;;;;;;;61.40;35.00;;;;;;;1.44;48.04;102883.56;3528418;77;21066;-67
2022/03/21 21:50:57;;;;;;;71.92;39.00;;;;;;;1.24;48.31;102878.34;3582955;77;20967;-67
2022/03/21 21:55:48;;;;;;;79.97;39.08;;;;;;;1.24;48.76;102886.03;3589635;77;20991;-67
2022/03/21 22:00:41;;;;;;;74.53;41.58;;;;;;;1.24;48.66;102884.36;3607847;77;21482;-68
2022/03/21 22:05:33;;;;;;;80.62;42.50;;;;;;;1.12;48.84;102879.02;3579938;77;20952;-67
2022/03/21 22:10:26;;;;;;;72.30;40.43;;;;;;;1.08;49.09;102875.67;3534363;77;21073;-67
2022/03/21 22:15:17;;;;;;;78.75;43.20;;;;;;;0.97;49.28;102873.81;3586265;77;20946;-67
2022/03/21 22:20:10;;;;;;;71.28;41.68;;;;;;;1.00;49.22;102880.47;3610366;77;20974;-67
2022/03/21 22:25:01;;;;;;;68.50;40.00;;;;;;;0.90;49.38;102880.42;3537566;77;21511;-67
2022/03/21 22:29:53;;;;;;;73.97;43.60;;;;;;;0.90;49.72;102872.74;3560998;77;20947;-67
2022/03/21 22:34:44;;;;;;;80.55;43.17;;;;;;;0.91;49.80;102871.96;3584868;77;22009;-67